Time;durP1;ratioP1;P1;durP2;ratioP2;P2;SDS_P1;SDS_P2;PMS_P1;PMS_P2;Temp;Humidity;BMP_temperature;BMP_pressure;BME280_temperature;BME280_humidity;BME280_pressure;Samples;Min_cycle;Max_cycle;Signal;HPM_P1;HPM_P2
2020/12/22 00:02:46;;;;;;;5.37;4.23;;;;;;;5.59;91.44;101537.31;6008973;29;20226;-78
2020/12/22 00:05:52;;;;;;;5.87;3.73;;;;;;;5.76;91.83;101533.59;6014015;29;20239;-78
2020/12/22 00:08:55;;;;;;;3.77;3.43;;;;;;;5.81;91.07;101520.41;6012200;29;20248;-79
2020/12/22 00:11:59;;;;;;;3.60;3.30;;;;;;;5.91;91.18;101531.94;6007930;29;20289;-80
2020/12/22 00:15:04;;;;;;;5.27;3.63;;;;;;;5.93;91.06;101529.91;6005575;29;20214;-78
2020/12/22 00:18:14;;;;;;;3.90;3.30;;;;;;;6.00;91.06;101519.25;6027976;29;20199;-79
2020/12/22 00:21:20;;;;;;;3.20;3.00;;;;;;;6.06;90.76;101529.41;6010222;29;20199;-79
2020/12/22 00:24:23;;;;;;;6.30;3.67;;;;;;;5.98;90.77;101515.88;6009192;29;20226;-80
2020/12/22 00:27:31;;;;;;;3.50;3.17;;;;;;;6.05;90.48;101515.00;6009434;29;20261;-79
2020/12/22 00:30:35;;;;;;;4.50;3.17;;;;;;;6.21;90.38;101516.84;6010940;29;20212;-78
2020/12/22 00:33:38;;;;;;;6.00;3.40;;;;;;;6.09;90.42;101512.78;6011170;29;20210;-80
2020/12/22 00:36:42;;;;;;;6.37;3.40;;;;;;;5.97;91.60;101531.25;6010390;29;20198;-80
2020/12/22 00:39:46;;;;;;;3.50;3.20;;;;;;;6.13;90.36;101528.53;6008937;29;20511;-79
2020/12/22 00:42:49;;;;;;;4.27;3.27;;;;;;;6.05;90.76;101530.41;6006993;29;20210;-79
2020/12/22 00:45:53;;;;;;;4.50;3.10;;;;;;;6.19;90.70;101535.13;6009520;29;20289;-79
2020/12/22 00:49:03;;;;;;;6.33;3.60;;;;;;;6.10;90.80;101531.59;6008824;29;20210;-78
2020/12/22 00:52:07;;;;;;;5.27;3.87;;;;;;;6.20;90.00;101526.84;6009847;29;20226;-78
2020/12/22 00:55:12;;;;;;;4.83;4.00;;;;;;;5.67;91.70;101512.97;6006163;29;20320;-79
2020/12/22 00:58:19;;;;;;;4.40;3.00;;;;;;;6.12;90.40;101518.72;5993463;29;20290;-78
2020/12/22 01:01:23;;;;;;;2.97;2.77;;;;;;;6.11;91.41;101527.84;5987635;29;20297;-79
2020/12/22 01:04:27;;;;;;;3.17;3.00;;;;;;;5.92;91.00;101493.00;6008919;29;20334;-78
2020/12/22 01:07:31;;;;;;;3.33;3.10;;;;;;;6.09;90.13;101502.78;6013391;29;20309;-78
2020/12/22 01:10:34;;;;;;;5.07;3.03;;;;;;;6.26;88.99;101499.06;6014757;29;20197;-79
2020/12/22 01:13:37;;;;;;;6.20;2.97;;;;;;;6.15;89.90;101512.09;6002847;29;20302;-78
2020/12/22 01:16:43;;;;;;;3.00;2.67;;;;;;;6.04;90.55;101499.75;6009775;29;20201;-79
2020/12/22 01:19:46;;;;;;;6.77;3.00;;;;;;;6.04;90.62;101502.47;6012081;29;20255;-79
2020/12/22 01:22:49;;;;;;;4.73;2.80;;;;;;;5.76;91.45;101468.63;6027107;29;20282;-78
2020/12/22 01:25:52;;;;;;;6.30;3.07;;;;;;;5.83;91.84;101496.69;6009368;29;20293;-78
2020/12/22 01:28:55;;;;;;;3.90;2.90;;;;;;;6.02;90.78;101506.38;6016798;29;20878;-78
2020/12/22 01:31:59;;;;;;;3.87;2.80;;;;;;;5.87;91.52;101508.94;6015716;29;20255;-78
2020/12/22 01:35:04;;;;;;;6.40;2.50;;;;;;;5.81;90.81;101517.69;6017548;29;20210;-77
2020/12/22 01:38:12;;;;;;;3.17;2.87;;;;;;;5.90;91.45;101503.19;6008446;29;20679;-78
2020/12/22 01:41:16;;;;;;;3.03;2.83;;;;;;;5.85;91.32;101499.28;6010956;29;20214;-79
2020/12/22 01:44:19;;;;;;;3.67;2.77;;;;;;;5.66;91.50;101505.84;6012271;29;20243;-78
2020/12/22 01:47:26;;;;;;;2.67;2.57;;;;;;;5.66;91.84;101497.72;6007699;29;20215;-78
2020/12/22 01:50:30;;;;;;;3.33;3.10;;;;;;;5.86;91.80;101501.81;6009851;29;20255;-79
2020/12/22 01:53:33;;;;;;;8.07;3.07;;;;;;;5.81;91.84;101481.63;6007433;29;20759;-78
2020/12/22 01:56:37;;;;;;;4.60;2.80;;;;;;;5.93;91.61;101491.16;6008106;29;20317;-78
2020/12/22 01:59:40;;;;;;;2.80;2.60;;;;;;;5.94;91.41;101482.84;6007964;29;20201;-78
2020/12/22 02:02:44;;;;;;;3.27;2.90;;;;;;;5.89;91.56;101490.63;6005839;29;20207;-77
2020/12/22 02:05:48;;;;;;;3.07;2.70;;;;;;;5.91;91.53;101488.59;6004164;29;20225;-79
2020/12/22 02:08:51;;;;;;;3.77;2.90;;;;;;;5.97;90.82;101466.25;5998969;29;20757;-77
2020/12/22 02:11:55;;;;;;;6.50;3.27;;;;;;;5.75;91.35;101472.34;5991529;29;20728;-79
2020/12/22 02:14:58;;;;;;;3.23;2.53;;;;;;;5.85;91.63;101467.63;5995204;29;20214;-77
2020/12/22 02:18:02;;;;;;;3.43;2.37;;;;;;;5.77;91.13;101470.31;6006045;29;20716;-80
2020/12/22 02:21:09;;;;;;;3.07;2.83;;;;;;;5.80;90.91;101453.72;6007813;29;20232;-78
2020/12/22 02:24:12;;;;;;;4.90;2.40;;;;;;;5.91;89.86;101483.19;6007728;29;20274;-78
2020/12/22 02:27:15;;;;;;;5.10;2.80;;;;;;;5.70;90.47;101482.81;6019526;29;20725;-81
2020/12/22 02:30:19;;;;;;;5.83;2.90;;;;;;;5.30;90.94;101428.69;6012719;29;20208;-78
2020/12/22 02:33:26;;;;;;;5.43;2.73;;;;;;;5.50;91.78;101473.34;6005525;29;20685;-80
2020/12/22 02:36:32;;;;;;;4.20;3.17;;;;;;;5.47;90.76;101454.78;6007135;29;20645;-78
2020/12/22 02:39:35;;;;;;;4.17;2.80;;;;;;;5.48;91.91;101459.16;6003640;29;20249;-78
2020/12/22 02:42:38;;;;;;;5.13;3.27;;;;;;;5.90;89.92;101473.38;6006396;29;20197;-79
2020/12/22 02:45:44;;;;;;;6.60;3.10;;;;;;;6.00;89.02;101465.91;5999905;29;20649;-80
2020/12/22 02:48:47;;;;;;;4.17;2.93;;;;;;;5.98;89.10;101461.69;6007540;29;20293;-79
2020/12/22 02:51:52;;;;;;;3.37;3.00;;;;;;;5.86;90.19;101463.91;6007292;29;20222;-78
2020/12/22 02:54:55;;;;;;;3.50;2.70;;;;;;;5.92;89.65;101457.81;6007958;29;20707;-79
2020/12/22 02:57:59;;;;;;;5.83;2.77;;;;;;;5.86;90.28;101447.63;6006450;29;20210;-79
2020/12/22 03:01:02;;;;;;;4.90;3.20;;;;;;;5.72;89.83;101440.19;6008799;29;20210;-79
2020/12/22 03:04:06;;;;;;;3.03;2.93;;;;;;;5.56;91.21;101423.97;6005118;29;20554;-79
2020/12/22 03:07:13;;;;;;;5.60;3.17;;;;;;;5.58;91.36;101438.16;6002669;29;20251;-78
2020/12/22 03:10:18;;;;;;;5.40;2.93;;;;;;;5.64;91.36;101437.50;6003477;29;20287;-78
2020/12/22 03:13:21;;;;;;;5.63;2.90;;;;;;;5.90;89.64;101434.63;5998755;29;20569;-78
2020/12/22 03:16:25;;;;;;;6.00;2.90;;;;;;;5.88;89.25;101436.66;5995591;29;20543;-80
2020/12/22 03:19:28;;;;;;;5.00;3.27;;;;;;;5.80;88.55;101396.88;6006494;29;20276;-79
2020/12/22 03:22:32;;;;;;;3.60;2.90;;;;;;;5.76;88.44;101390.09;6004243;29;20247;-79
2020/12/22 03:25:35;;;;;;;7.30;3.20;;;;;;;5.98;88.48;101430.03;6005423;29;20618;-79
2020/12/22 03:28:39;;;;;;;8.63;3.17;;;;;;;5.90;88.82;101427.34;6005645;29;20418;-76
2020/12/22 03:31:42;;;;;;;3.87;3.17;;;;;;;5.57;90.01;101425.66;6004053;29;20206;-78
2020/12/22 03:34:45;;;;;;;3.97;2.70;;;;;;;5.37;90.95;101435.13;6022272;29;20242;-82
2020/12/22 03:37:49;;;;;;;3.50;2.77;;;;;;;5.11;91.70;101434.44;6008141;29;20199;-79
2020/12/22 03:40:52;;;;;;;5.93;3.40;;;;;;;5.00;93.17;101439.16;6005942;29;20218;-77
2020/12/22 03:43:56;;;;;;;3.00;2.80;;;;;;;5.17;92.37;101417.53;6006684;29;20210;-79
2020/12/22 03:47:00;;;;;;;4.40;3.03;;;;;;;5.08;92.91;101425.63;5994665;29;20358;-79
2020/12/22 03:50:04;;;;;;;5.63;3.13;;;;;;;5.07;92.82;101418.53;6006324;29;20228;-78
2020/12/22 03:53:14;;;;;;;4.87;3.03;;;;;;;5.10;92.14;101421.91;6005455;29;20242;-78
2020/12/22 03:56:17;;;;;;;9.43;3.47;;;;;;;5.10;91.67;101416.50;6005909;29;20242;-80
2020/12/22 03:59:20;;;;;;;7.70;3.50;;;;;;;5.06;92.38;101411.44;6006082;29;20202;-80
2020/12/22 04:02:24;;;;;;;7.30;3.50;;;;;;;5.20;92.21;101428.88;6004358;29;20213;-77
2020/12/22 04:05:27;;;;;;;4.83;3.10;;;;;;;5.12;91.16;101414.47;6006513;29;20267;-77
2020/12/22 04:08:31;;;;;;;3.77;3.20;;;;;;;5.28;91.16;101414.50;6005873;29;20627;-79
2020/12/22 04:11:35;;;;;;;2.80;2.70;;;;;;;5.36;90.98;101406.38;6012355;29;20214;-78
2020/12/22 04:14:38;;;;;;;3.33;2.90;;;;;;;5.34;90.92;101413.84;6002787;29;20552;-79
2020/12/22 04:17:42;;;;;;;6.30;3.27;;;;;;;5.32;90.49;101402.31;6001049;29;20206;-80
2020/12/22 04:20:45;;;;;;;8.07;3.03;;;;;;;5.27;90.84;101401.97;6005111;29;20194;-77
2020/12/22 04:23:49;;;;;;;6.47;2.70;;;;;;;5.27;91.01;101399.25;6004440;29;20249;-79
2020/12/22 04:26:52;;;;;;;3.47;2.93;;;;;;;5.37;90.70;101394.53;6005113;29;20567;-80
2020/12/22 04:29:56;;;;;;;5.87;3.37;;;;;;;5.47;90.64;101398.75;6004737;29;20278;-78
2020/12/22 04:32:59;;;;;;;8.30;3.30;;;;;;;5.56;90.09;101386.06;6005504;29;20688;-77
2020/12/22 04:36:02;;;;;;;3.13;2.60;;;;;;;5.24;89.99;101370.69;6005812;29;20210;-78
2020/12/22 04:39:07;;;;;;;2.80;2.60;;;;;;;5.42;90.74;101381.31;6006888;29;20561;-77
2020/12/22 04:42:13;;;;;;;9.20;3.77;;;;;;;5.40;90.02;101369.84;6029460;29;20214;-78
2020/12/22 04:45:17;;;;;;;4.93;3.00;;;;;;;5.32;90.78;101373.41;6009618;29;20218;-79
2020/12/22 04:48:25;;;;;;;5.33;3.30;;;;;;;5.30;91.01;101367.31;6015650;29;20300;-79
2020/12/22 04:51:37;;;;;;;6.10;3.23;;;;;;;5.47;90.10;101349.22;6010875;29;20226;-78
2020/12/22 04:54:42;;;;;;;7.03;3.50;;;;;;;5.57;90.05;101339.03;6018523;29;20736;-78
2020/12/22 04:57:48;;;;;;;3.30;3.10;;;;;;;5.60;89.68;101335.97;6009959;29;20286;-77
2020/12/22 05:00:51;;;;;;;5.40;3.50;;;;;;;5.60;89.15;101325.16;6008105;29;20653;-77
2020/12/22 05:03:54;;;;;;;5.50;3.07;;;;;;;5.47;89.61;101332.97;6009706;29;20232;-78
2020/12/22 05:06:57;;;;;;;3.37;2.83;;;;;;;5.67;88.75;101328.88;6008305;29;20603;-77
2020/12/22 05:10:06;;;;;;;6.53;3.57;;;;;;;5.69;88.11;101327.69;6010828;29;20201;-77
2020/12/22 05:13:15;;;;;;;3.23;3.10;;;;;;;5.58;88.83;101325.31;5997113;29;20226;-77
2020/12/22 05:16:26;;;;;;;4.87;2.80;;;;;;;5.51;88.19;101313.50;6003116;29;20218;-78
2020/12/22 05:19:35;;;;;;;5.73;3.07;;;;;;;5.50;88.81;101321.78;6009521;29;20901;-78
2020/12/22 05:22:38;;;;;;;3.47;3.17;;;;;;;5.44;89.01;101315.22;6007638;29;20685;-78
2020/12/22 05:25:45;;;;;;;6.63;3.27;;;;;;;5.34;88.28;101279.38;6009470;29;20222;-77
2020/12/22 05:28:57;;;;;;;8.00;3.23;;;;;;;5.46;88.62;101287.97;6008088;29;20346;-78
2020/12/22 05:32:00;;;;;;;8.87;3.60;;;;;;;5.42;88.94;101297.44;6008326;29;20201;-77
2020/12/22 05:35:03;;;;;;;8.77;3.70;;;;;;;5.43;88.89;101291.03;6007488;29;20573;-77
2020/12/22 05:38:09;;;;;;;13.93;4.30;;;;;;;5.52;88.34;101295.41;6008886;29;20193;-78
2020/12/22 05:41:13;;;;;;;6.10;3.53;;;;;;;5.42;89.11;101287.47;6006915;29;20288;-77
2020/12/22 05:44:17;;;;;;;7.23;3.60;;;;;;;5.39;88.54;101276.16;6009096;29;20226;-79
2020/12/22 05:47:22;;;;;;;7.70;3.50;;;;;;;5.55;88.11;101271.53;6028168;29;20214;-82
2020/12/22 05:50:25;;;;;;;5.77;3.80;;;;;;;5.33;88.75;101271.44;6000396;29;20556;-77
2020/12/22 05:53:29;;;;;;;12.87;3.60;;;;;;;5.36;89.49;101281.91;6007358;29;20298;-78
2020/12/22 05:56:35;;;;;;;7.27;3.40;;;;;;;5.35;89.47;101274.81;6007577;29;20229;-78
2020/12/22 05:59:39;;;;;;;4.70;3.33;;;;;;;5.49;89.18;101266.84;6007055;29;20468;-78
2020/12/22 06:02:43;;;;;;;8.33;3.40;;;;;;;5.32;89.73;101248.09;6004954;29;20257;-78
2020/12/22 06:05:46;;;;;;;4.67;3.33;;;;;;;5.30;90.21;101255.53;6007100;29;20242;-78
2020/12/22 06:08:51;;;;;;;9.70;3.93;;;;;;;5.30;90.40;101260.94;6001994;29;20202;-80
2020/12/22 06:12:00;;;;;;;6.07;3.37;;;;;;;5.26;90.09;101237.97;6006725;29;20207;-78
2020/12/22 06:15:04;;;;;;;5.90;3.20;;;;;;;5.44;89.23;101269.22;6005231;29;20224;-78
2020/12/22 06:18:15;;;;;;;3.63;3.40;;;;;;;5.40;90.35;101256.19;6001449;29;20708;-78
2020/12/22 06:21:21;;;;;;;6.33;3.30;;;;;;;5.20;89.07;101198.94;6012055;29;20411;-78
2020/12/22 06:24:24;;;;;;;5.03;3.30;;;;;;;5.61;88.33;101237.50;6012259;29;20261;-77
2020/12/22 06:27:32;;;;;;;6.60;3.30;;;;;;;5.64;88.36;101237.16;6007311;29;20222;-77
2020/12/22 06:30:38;;;;;;;3.47;3.20;;;;;;;5.69;86.94;101223.94;5999377;29;20210;-77
2020/12/22 06:33:47;;;;;;;6.23;3.27;;;;;;;5.47;88.39;101213.91;6005935;29;20285;-77
2020/12/22 06:36:58;;;;;;;6.10;3.10;;;;;;;5.45;87.98;101205.09;5997073;29;20208;-76
2020/12/22 06:40:01;;;;;;;4.63;3.07;;;;;;;5.05;88.24;101128.50;6004423;29;20745;-78
2020/12/22 06:43:06;;;;;;;4.90;2.80;;;;;;;5.52;87.61;101203.41;6006323;29;20690;-78
2020/12/22 06:46:11;;;;;;;3.13;2.80;;;;;;;5.72;86.90;101201.94;6006300;29;20226;-77
2020/12/22 06:49:15;;;;;;;3.10;2.23;;;;;;;5.58;86.94;101191.84;6004482;29;20220;-78
2020/12/22 06:52:37;;;;;;;3.07;2.63;;;;;;;5.63;86.88;101181.34;6017591;29;20240;-81
2020/12/22 06:55:50;;;;;;;3.37;2.73;;;;;;;5.68;86.72;101181.66;6008804;29;20246;-77
2020/12/22 06:58:54;;;;;;;4.40;2.70;;;;;;;5.52;87.10;101179.84;5998219;29;20211;-79
2020/12/22 07:01:57;;;;;;;2.90;2.77;;;;;;;5.43;88.20;101175.50;6004464;29;20206;-80
2020/12/22 07:05:01;;;;;;;4.07;2.73;;;;;;;5.48;88.20;101172.28;5999733;29;20233;-80
2020/12/22 07:08:07;;;;;;;6.10;3.00;;;;;;;5.61;88.30;101164.44;6009580;29;20209;-76
2020/12/22 07:11:19;;;;;;;5.43;2.80;;;;;;;5.77;87.13;101156.22;6006067;29;20291;-78
2020/12/22 07:14:25;;;;;;;7.80;3.30;;;;;;;5.68;88.12;101146.44;6000380;29;20743;-77
2020/12/22 07:17:29;;;;;;;12.80;3.23;;;;;;;5.74;87.76;101150.31;5999160;29;20518;-77
2020/12/22 07:20:34;;;;;;;7.23;3.20;;;;;;;5.79;87.71;101153.34;6000065;29;20354;-79
2020/12/22 07:23:38;;;;;;;3.53;3.17;;;;;;;5.79;88.48;101140.66;6013596;29;20207;-79
2020/12/22 07:26:42;;;;;;;6.93;3.63;;;;;;;5.66;88.30;101116.00;6008587;29;20231;-78
2020/12/22 07:29:46;;;;;;;7.57;3.30;;;;;;;5.88;87.90;101142.28;6014722;29;20559;-78
2020/12/22 07:32:52;;;;;;;9.43;3.60;;;;;;;5.83;88.79;101139.25;6000375;29;20190;-78
2020/12/22 07:35:57;;;;;;;3.00;2.83;;;;;;;5.78;89.15;101130.81;6002589;29;20689;-79
2020/12/22 07:39:25;;;;;;;5.47;3.23;;;;;;;5.64;90.28;101131.59;6002644;29;20284;-78
2020/12/22 07:42:29;;;;;;;8.67;3.90;;;;;;;5.58;91.81;101121.47;5999369;29;20548;-76
2020/12/22 07:45:33;;;;;;;3.90;3.40;;;;;;;5.61;91.92;101107.59;6000579;29;20746;-77
2020/12/22 07:48:37;;;;;;;3.37;3.17;;;;;;;5.71;92.22;101110.91;6005179;29;20686;-79
2020/12/22 07:51:42;;;;;;;5.77;3.40;;;;;;;5.79;92.79;101115.44;6004047;29;20246;-79
2020/12/22 07:54:56;;;;;;;8.63;3.83;;;;;;;5.75;93.92;101109.53;6002569;29;20249;-78
2020/12/22 07:58:01;;;;;;;12.63;3.93;;;;;;;5.83;94.27;101106.75;6011430;29;20206;-82
2020/12/22 08:01:10;;;;;;;5.97;4.50;;;;;;;5.87;94.95;101102.72;6016961;29;20567;-78
2020/12/22 08:04:17;;;;;;;4.77;4.37;;;;;;;6.01;95.10;101093.78;6006779;29;20541;-78
2020/12/22 08:07:20;;;;;;;7.67;4.27;;;;;;;5.89;96.00;101084.41;6005345;29;20219;-78
2020/12/22 08:10:24;;;;;;;6.40;4.90;;;;;;;5.94;96.52;101087.44;6005865;29;20778;-78
2020/12/22 08:13:31;;;;;;;11.93;5.30;;;;;;;6.02;96.06;101073.81;6007763;29;20675;-79
2020/12/22 08:16:36;;;;;;;10.33;5.00;;;;;;;6.17;95.16;101072.00;6003929;29;20246;-79
2020/12/22 08:19:40;;;;;;;15.97;5.63;;;;;;;6.09;95.23;101063.94;6009728;29;20206;-79
2020/12/22 08:22:44;;;;;;;19.33;5.90;;;;;;;6.13;95.26;101067.97;6009751;29;20202;-78
2020/12/22 08:25:50;;;;;;;10.03;5.73;;;;;;;5.84;94.66;101002.00;6008369;29;20281;-79
2020/12/22 08:28:55;;;;;;;10.27;5.40;;;;;;;6.31;94.23;101056.81;6009470;29;20207;-79
2020/12/22 08:32:01;;;;;;;15.83;6.10;;;;;;;5.94;94.04;101030.56;5998143;29;20211;-78
2020/12/22 08:35:04;;;;;;;12.60;5.80;;;;;;;6.18;93.50;101052.03;6009509;29;20202;-78
2020/12/22 08:38:21;;;;;;;18.83;5.63;;;;;;;6.25;91.53;101042.13;6008752;29;20203;-77
2020/12/22 08:41:26;;;;;;;11.70;5.57;;;;;;;6.34;91.13;101055.59;6010223;29;20199;-78
2020/12/22 08:44:30;;;;;;;8.23;5.03;;;;;;;6.31;89.60;101051.38;6008655;29;20234;-78
2020/12/22 08:47:34;;;;;;;10.30;4.40;;;;;;;6.45;88.13;101041.56;6009229;29;20230;-79
2020/12/22 08:50:48;;;;;;;9.60;4.60;;;;;;;6.50;87.61;101034.56;6009357;29;20322;-79
2020/12/22 08:54:11;;;;;;;11.90;4.17;;;;;;;6.40;88.11;101028.59;6001574;29;20235;-77
2020/12/22 08:57:16;;;;;;;9.37;4.60;;;;;;;6.49;87.39;101029.34;6007729;29;20635;-78
2020/12/22 09:00:24;;;;;;;11.30;4.60;;;;;;;6.32;87.85;101029.50;6008489;29;20235;-78
2020/12/22 09:03:31;;;;;;;9.23;4.40;;;;;;;6.58;87.04;101025.50;6015209;29;20211;-83
2020/12/22 09:06:40;;;;;;;11.00;4.60;;;;;;;6.60;86.52;101016.16;6011832;29;20222;-78
2020/12/22 09:09:46;;;;;;;10.27;4.27;;;;;;;6.63;86.24;101017.66;5995715;29;20226;-78
2020/12/22 09:12:50;;;;;;;9.60;4.73;;;;;;;6.61;85.66;101014.28;6004521;29;20218;-79
2020/12/22 09:15:53;;;;;;;5.73;4.10;;;;;;;6.31;86.79;101008.03;6007737;29;20842;-79
2020/12/22 09:19:05;;;;;;;5.57;3.60;;;;;;;6.29;86.45;101016.34;6008693;29;20350;-79
2020/12/22 09:22:10;;;;;;;8.17;3.73;;;;;;;6.33;85.89;101005.97;6007924;29;20235;-79
2020/12/22 09:25:13;;;;;;;11.20;4.13;;;;;;;6.42;85.30;101010.25;6008007;29;20366;-79
2020/12/22 09:28:20;;;;;;;9.37;3.70;;;;;;;6.59;84.11;100983.84;6015135;29;20294;-79
2020/12/22 09:31:24;;;;;;;6.03;3.57;;;;;;;6.55;84.60;100985.25;6008376;29;20230;-81
2020/12/22 09:34:31;;;;;;;5.33;3.37;;;;;;;6.44;85.38;100983.00;6004257;29;20296;-80
2020/12/22 09:37:35;;;;;;;7.87;4.07;;;;;;;6.36;85.18;100966.81;6011827;29;20218;-78
2020/12/22 09:40:38;;;;;;;10.00;4.00;;;;;;;6.48;84.55;100949.06;6008861;29;20663;-79
2020/12/22 09:43:41;;;;;;;9.43;4.67;;;;;;;6.50;84.35;100947.84;6011576;29;20243;-79
2020/12/22 09:46:58;;;;;;;4.37;3.97;;;;;;;6.53;84.15;100952.03;6011497;29;20265;-80
2020/12/22 09:50:03;;;;;;;8.37;4.10;;;;;;;6.37;84.82;100946.84;6018385;29;20234;-80
2020/12/22 09:53:10;;;;;;;9.60;4.50;;;;;;;6.47;84.79;100941.97;6008164;29;20350;-85
2020/12/22 09:56:13;;;;;;;7.80;4.83;;;;;;;6.67;83.68;100934.94;6010880;29;20200;-78
2020/12/22 09:59:18;;;;;;;7.67;3.83;;;;;;;6.32;84.12;100899.44;6011971;29;20277;-79
2020/12/22 10:02:22;;;;;;;11.40;4.60;;;;;;;6.64;84.22;100928.03;6015378;29;20744;-79
2020/12/22 10:05:26;;;;;;;9.40;4.67;;;;;;;6.48;84.57;100909.25;6008529;29;20290;-77
2020/12/22 10:08:30;;;;;;;6.17;5.00;;;;;;;6.68;83.56;100906.78;6008151;29;20219;-78
2020/12/22 10:11:35;;;;;;;6.80;4.73;;;;;;;6.58;84.94;100907.06;6041764;29;20254;-80
2020/12/22 10:14:38;;;;;;;7.10;4.80;;;;;;;6.70;83.69;100910.16;6003915;29;20286;-79
2020/12/22 10:17:42;;;;;;;8.43;4.77;;;;;;;6.67;83.19;100899.69;6007285;29;20249;-77
2020/12/22 10:20:50;;;;;;;10.60;5.63;;;;;;;6.53;84.71;100905.97;6006066;29;20210;-77
2020/12/22 10:23:59;;;;;;;11.40;5.40;;;;;;;6.47;84.81;100901.31;5996532;29;20211;-78
2020/12/22 10:27:03;;;;;;;12.53;5.93;;;;;;;6.46;84.75;100903.19;6006818;29;20332;-78
2020/12/22 10:30:08;;;;;;;9.73;6.10;;;;;;;6.54;84.57;100899.53;6009690;29;20275;-79
2020/12/22 10:33:19;;;;;;;11.97;6.10;;;;;;;6.64;84.32;100900.06;6011169;29;20211;-80
2020/12/22 10:36:24;;;;;;;11.80;6.13;;;;;;;6.77;83.34;100894.81;6012758;29;20210;-78
2020/12/22 10:39:27;;;;;;;12.10;6.43;;;;;;;6.71;83.94;100890.13;6013637;29;20198;-78
2020/12/22 10:42:31;;;;;;;13.13;6.77;;;;;;;6.81;83.44;100877.09;5997186;29;20202;-76
2020/12/22 10:45:34;;;;;;;14.50;6.83;;;;;;;6.77;83.53;100873.09;6003406;29;20210;-78
2020/12/22 10:48:37;;;;;;;16.03;7.00;;;;;;;6.48;84.81;100856.91;5992770;29;20207;-80
2020/12/22 10:51:42;;;;;;;12.73;7.07;;;;;;;6.68;84.27;100863.41;6023769;29;20543;-83
2020/12/22 10:54:45;;;;;;;20.77;7.23;;;;;;;6.64;84.65;100862.94;6009041;29;20346;-78
2020/12/22 10:57:49;;;;;;;12.77;6.80;;;;;;;6.78;84.10;100853.06;6007136;29;20250;-79
2020/12/22 11:00:52;;;;;;;15.93;7.73;;;;;;;6.70;84.69;100851.31;6006155;29;20249;-81
2020/12/22 11:03:56;;;;;;;14.90;7.27;;;;;;;6.64;85.03;100843.13;6004604;29;20271;-81
2020/12/22 11:07:06;;;;;;;21.70;7.53;;;;;;;6.79;84.90;100835.78;6016146;29;20914;-78
2020/12/22 11:10:12;;;;;;;17.93;7.47;;;;;;;6.80;84.62;100816.63;6004740;29;20264;-81
2020/12/22 11:13:15;;;;;;;14.33;7.97;;;;;;;6.65;85.73;100820.44;6008948;29;20210;-81
2020/12/22 11:16:24;;;;;;;11.90;7.53;;;;;;;6.60;86.68;100818.25;6018453;29;20308;-81
2020/12/22 11:19:28;;;;;;;20.10;8.43;;;;;;;6.59;87.19;100799.50;6015578;29;20246;-78
2020/12/22 11:22:33;;;;;;;16.70;7.23;;;;;;;6.76;86.65;100800.91;5998460;29;20207;-77
2020/12/22 11:25:50;;;;;;;18.60;8.13;;;;;;;6.66;87.13;100800.41;6006791;29;20230;-79
2020/12/22 11:28:53;;;;;;;15.87;7.20;;;;;;;6.71;86.98;100789.81;6006767;29;20696;-81
2020/12/22 11:31:57;;;;;;;16.37;7.03;;;;;;;6.57;87.75;100778.00;6022636;29;20262;-83
2020/12/22 11:35:00;;;;;;;20.37;7.60;;;;;;;6.81;87.02;100784.91;6011825;29;20206;-78
2020/12/22 11:38:06;;;;;;;15.00;7.23;;;;;;;6.82;87.17;100773.03;6007524;29;20249;-81
2020/12/22 11:41:19;;;;;;;12.20;6.37;;;;;;;6.67;88.33;100789.38;6013960;29;20700;-78
2020/12/22 11:44:23;;;;;;;23.23;7.60;;;;;;;6.64;89.08;100769.94;6001615;29;20229;-78
2020/12/22 11:47:26;;;;;;;18.80;6.83;;;;;;;6.37;89.38;100725.44;6005376;29;20578;-80
2020/12/22 11:50:29;;;;;;;15.87;7.23;;;;;;;6.66;89.03;100757.03;6032472;29;20234;-82
2020/12/22 11:53:33;;;;;;;16.40;6.43;;;;;;;6.59;89.18;100731.72;6023377;29;20242;-81
2020/12/22 11:56:37;;;;;;;15.30;7.20;;;;;;;6.72;88.69;100746.25;6020665;29;20234;-79
2020/12/22 11:59:40;;;;;;;12.23;6.87;;;;;;;6.68;89.70;100738.69;6013437;29;20214;-77
2020/12/22 12:02:43;;;;;;;11.73;7.10;;;;;;;6.75;89.37;100737.72;6013994;29;20588;-80
2020/12/22 12:05:46;;;;;;;17.50;6.83;;;;;;;6.71;90.11;100738.31;6017606;29;20214;-77
2020/12/22 12:08:51;;;;;;;16.80;7.60;;;;;;;6.81;89.70;100728.81;6013439;29;20350;-78
2020/12/22 12:11:54;;;;;;;15.23;7.40;;;;;;;6.57;90.65;100704.81;6015122;29;20207;-80
2020/12/22 12:14:57;;;;;;;14.70;7.37;;;;;;;6.95;89.60;100713.50;6017805;29;20202;-79
2020/12/22 12:18:00;;;;;;;14.27;7.20;;;;;;;6.73;91.28;100719.97;6014593;29;20888;-79
2020/12/22 12:21:05;;;;;;;21.47;7.87;;;;;;;6.72;91.88;100707.44;6018116;29;20199;-79
2020/12/22 12:24:09;;;;;;;15.60;7.60;;;;;;;6.91;91.61;100706.75;6026098;29;20216;-78
2020/12/22 12:27:13;;;;;;;18.37;8.10;;;;;;;6.72;92.97;100694.75;6014532;29;20235;-78
2020/12/22 12:30:16;;;;;;;14.70;7.70;;;;;;;6.80;92.54;100683.75;6001338;29;20207;-78
2020/12/22 12:33:21;;;;;;;13.70;8.23;;;;;;;6.76;93.00;100689.75;6011397;29;20285;-78
2020/12/22 12:36:24;;;;;;;14.57;7.77;;;;;;;6.61;93.46;100680.84;6012943;29;20253;-79
2020/12/22 12:39:28;;;;;;;16.80;8.73;;;;;;;6.50;94.36;100667.81;6019194;29;20201;-80
2020/12/22 12:42:31;;;;;;;11.37;7.57;;;;;;;6.38;95.21;100647.69;6020183;29;20807;-79
2020/12/22 12:45:35;;;;;;;12.03;7.83;;;;;;;6.61;94.37;100672.72;6020270;29;20569;-80
2020/12/22 12:48:38;;;;;;;19.03;7.83;;;;;;;6.61;94.48;100662.72;6023386;29;20219;-81
2020/12/22 12:51:44;;;;;;;15.60;7.23;;;;;;;6.59;94.27;100655.81;6010647;29;20231;-80
2020/12/22 12:54:48;;;;;;;12.90;7.57;;;;;;;6.66;94.02;100654.00;6007097;29;20234;-79
2020/12/22 12:57:51;;;;;;;10.97;6.73;;;;;;;6.38;95.16;100637.72;6012633;29;20225;-80
2020/12/22 13:00:54;;;;;;;14.47;6.97;;;;;;;6.37;96.24;100644.16;6007594;29;20203;-79
2020/12/22 13:03:58;;;;;;;11.17;6.33;;;;;;;6.48;95.68;100645.50;6003118;29;20694;-78
2020/12/22 13:07:01;;;;;;;9.37;5.80;;;;;;;6.50;95.26;100632.59;6011339;29;20219;-80
2020/12/22 13:10:06;;;;;;;9.20;6.60;;;;;;;6.24;95.41;100617.78;6015540;29;20309;-78
2020/12/22 13:13:13;;;;;;;10.00;6.03;;;;;;;6.39;95.76;100630.44;6026945;29;20214;-80
2020/12/22 13:16:17;;;;;;;13.53;6.30;;;;;;;6.62;94.78;100631.03;6012012;29;20196;-80
2020/12/22 13:19:20;;;;;;;13.83;5.77;;;;;;;6.80;93.63;100632.25;6005262;29;20201;-80
2020/12/22 13:22:24;;;;;;;7.23;5.33;;;;;;;6.62;94.93;100628.34;5998452;29;20659;-78
2020/12/22 13:25:28;;;;;;;9.70;5.90;;;;;;;6.26;96.07;100610.31;6001974;29;20259;-80
2020/12/22 13:28:31;;;;;;;7.70;5.77;;;;;;;6.62;95.01;100609.34;6016489;29;20214;-84
2020/12/22 13:31:34;;;;;;;10.97;6.00;;;;;;;6.72;94.43;100615.28;6004410;29;20210;-79
2020/12/22 13:34:38;;;;;;;7.73;5.37;;;;;;;6.51;95.76;100601.75;6009198;29;20495;-79
2020/12/22 13:38:01;;;;;;;9.30;5.27;;;;;;;6.68;93.87;100603.13;5985360;29;20202;-78
2020/12/22 13:41:06;;;;;;;7.10;4.90;;;;;;;6.63;94.41;100605.59;6010884;29;20225;-78
2020/12/22 13:44:15;;;;;;;7.27;4.60;;;;;;;6.66;94.43;100594.34;5990172;29;20648;-79
2020/12/22 13:47:19;;;;;;;8.80;5.20;;;;;;;6.47;95.28;100597.78;6003511;29;20222;-79
2020/12/22 13:50:23;;;;;;;6.53;4.30;;;;;;;6.30;94.99;100557.41;6008767;29;20262;-81
2020/12/22 13:53:29;;;;;;;7.30;4.33;;;;;;;6.27;95.87;100560.50;6003423;29;20338;-79
2020/12/22 13:56:34;;;;;;;5.37;4.73;;;;;;;6.47;95.10;100585.03;6011813;29;20339;-80
2020/12/22 13:59:37;;;;;;;5.70;3.70;;;;;;;6.71;93.15;100586.47;6020978;29;20226;-80
2020/12/22 14:02:46;;;;;;;4.90;3.53;;;;;;;6.45;93.52;100572.72;6030444;29;20214;-81
2020/12/22 14:05:50;;;;;;;6.87;3.90;;;;;;;6.48;93.47;100558.78;6025793;29;20252;-81
2020/12/22 14:08:54;;;;;;;5.00;3.93;;;;;;;6.42;94.16;100570.44;6022405;29;20286;-80
2020/12/22 14:11:57;;;;;;;8.20;3.87;;;;;;;6.43;94.50;100563.94;6003529;29;20206;-81
2020/12/22 14:15:01;;;;;;;4.43;3.43;;;;;;;6.27;95.33;100541.53;5999532;29;20278;-79
2020/12/22 14:18:07;;;;;;;4.83;3.80;;;;;;;6.22;94.41;100522.31;6008522;29;20659;-81
2020/12/22 14:21:14;;;;;;;4.57;4.13;;;;;;;6.62;93.68;100547.00;6008962;29;20763;-81
2020/12/22 14:24:17;;;;;;;6.87;3.80;;;;;;;6.25;95.76;100543.59;6011019;29;20610;-80
2020/12/22 14:27:21;;;;;;;5.80;4.33;;;;;;;6.45;94.86;100549.16;6013970;29;20345;-79
2020/12/22 14:30:25;;;;;;;5.30;3.73;;;;;;;6.48;94.24;100542.50;6013537;29;20655;-79